Time;durP1;ratioP1;P1;durP2;ratioP2;P2;SDS_P1;SDS_P2;PMS_P1;PMS_P2;Temp;Humidity;BMP_temperature;BMP_pressure;BME280_temperature;BME280_humidity;BME280_pressure;Samples;Min_cycle;Max_cycle;Signal;HPM_P1;HPM_P2
2022/01/13 00:00:18;;;;;;;63.50;19.53;;;;;;;;;;5072251;28;20020;-91
2022/01/13 00:02:43;;;;;;;51.07;17.53;;;;;;;;;;5072949;28;20078;-91
2022/01/13 00:05:09;;;;;;;49.00;17.17;;;;;;;;;;5073930;28;20380;-90
2022/01/13 00:07:36;;;;;;;47.33;16.67;;;;;;;;;;5073805;28;20021;-90
2022/01/13 00:10:02;;;;;;;67.63;20.47;;;;;;;;;;5072848;28;20028;-90
2022/01/13 00:12:33;;;;;;;57.13;19.03;;;;;;;;;;5072787;28;20361;-90
2022/01/13 00:23:37;;;;;;;57.50;19.40;;;;;;;;;;5074086;28;20032;-91
2022/01/13 00:25:34;;;;;;;54.63;18.93;;;;;;;;;;5073562;28;20020;-91
2022/01/13 00:28:01;;;;;;;61.90;19.77;;;;;;;;;;5072662;28;20020;-90
2022/01/13 00:30:27;;;;;;;49.20;18.23;;;;;;;;;;5072203;28;20024;-90
2022/01/13 00:32:52;;;;;;;55.50;19.33;;;;;;;;;;5072526;28;20065;-91
2022/01/13 00:35:17;;;;;;;55.93;18.47;;;;;;;;;;5075097;28;20020;-91
2022/01/13 00:37:43;;;;;;;49.67;19.90;;;;;;;;;;5076721;28;20056;-90
2022/01/13 00:40:09;;;;;;;59.70;20.70;;;;;;;;;;5076731;28;20056;-91
2022/01/13 00:42:34;;;;;;;53.00;18.57;;;;;;;;;;5077545;28;20021;-90
2022/01/13 00:45:01;;;;;;;50.17;18.00;;;;;;;;;;5077798;28;20016;-91
2022/01/13 00:47:28;;;;;;;56.30;19.07;;;;;;;;;;5096868;28;20414;-90
2022/01/13 00:49:53;;;;;;;50.57;17.90;;;;;;;;;;5096672;28;20107;-91
2022/01/13 00:52:18;;;;;;;53.50;17.57;;;;;;;;;;5096657;28;20047;-91
2022/01/13 00:54:43;;;;;;;57.67;20.63;;;;;;;;;;5096615;28;20145;-91
2022/01/13 00:57:09;;;;;;;66.80;20.90;;;;;;;;;;5096589;28;20520;-90
2022/01/13 00:59:34;;;;;;;56.03;19.43;;;;;;;;;;5096354;28;20019;-90
2022/01/13 01:01:59;;;;;;;63.13;21.43;;;;;;;;;;5097573;28;20022;-91
2022/01/13 01:04:24;;;;;;;59.13;20.20;;;;;;;;;;5097288;28;20016;-90
2022/01/13 01:06:50;;;;;;;56.10;18.73;;;;;;;;;;5096525;28;20012;-90
2022/01/13 01:09:21;;;;;;;57.90;20.30;;;;;;;;;;5096430;28;20432;-91
2022/01/13 01:11:48;;;;;;;77.03;22.40;;;;;;;;;;5096268;28;20111;-90
2022/01/13 01:14:15;;;;;;;61.63;20.70;;;;;;;;;;5097320;28;20267;-90
2022/01/13 01:16:41;;;;;;;64.47;21.93;;;;;;;;;;5081386;28;20028;-90
2022/01/13 01:19:07;;;;;;;60.53;19.30;;;;;;;;;;5075926;28;20021;-91
2022/01/13 01:24:16;;;;;;;58.93;20.67;;;;;;;;;;5076889;28;20460;-91
2022/01/13 01:26:49;;;;;;;66.70;23.23;;;;;;;;;;5075530;28;20013;-91
2022/01/13 01:29:23;;;;;;;59.27;21.33;;;;;;;;;;5075658;28;20119;-91
2022/01/13 01:31:52;;;;;;;63.47;21.03;;;;;;;;;;5075719;28;20477;-90
2022/01/13 01:36:44;;;;;;;66.77;23.87;;;;;;;;;;5076666;28;20032;-90
2022/01/13 01:39:09;;;;;;;59.23;23.40;;;;;;;;;;5076525;28;20017;-90
2022/01/13 01:41:36;;;;;;;71.53;25.33;;;;;;;;;;5076578;28;20082;-90
2022/01/13 01:44:08;;;;;;;73.83;24.70;;;;;;;;;;5095585;28;20391;-90
2022/01/13 01:46:35;;;;;;;61.00;23.83;;;;;;;;;;5095376;28;20039;-90
2022/01/13 01:49:04;;;;;;;59.87;20.97;;;;;;;;;;5096683;28;20043;-90
2022/01/13 01:51:29;;;;;;;63.97;24.63;;;;;;;;;;5095567;28;20035;-91
2022/01/13 01:53:54;;;;;;;63.43;24.23;;;;;;;;;;5095419;28;20135;-90
2022/01/13 01:56:19;;;;;;;64.53;22.80;;;;;;;;;;5095396;28;20024;-90
2022/01/13 01:58:45;;;;;;;58.93;23.40;;;;;;;;;;5095231;28;20028;-90
2022/01/13 02:01:10;;;;;;;65.00;23.57;;;;;;;;;;5096414;28;20012;-90
2022/01/13 02:03:35;;;;;;;58.30;22.53;;;;;;;;;;5095283;28;20016;-90
2022/01/13 02:06:00;;;;;;;62.47;23.67;;;;;;;;;;5095334;28;20522;-91
2022/01/13 02:08:26;;;;;;;66.90;24.93;;;;;;;;;;5095055;28;20019;-89
2022/01/13 02:10:51;;;;;;;62.77;22.97;;;;;;;;;;5091048;28;20468;-91
2022/01/13 02:13:22;;;;;;;67.73;23.80;;;;;;;;;;5074894;28;20023;-90
2022/01/13 02:16:02;;;;;;;67.70;24.33;;;;;;;;;;5074497;28;20540;-90
2022/01/13 02:18:31;;;;;;;63.07;24.83;;;;;;;;;;5074686;28;20093;-91
2022/01/13 02:20:56;;;;;;;65.20;24.73;;;;;;;;;;5074346;28;20036;-90
2022/01/13 02:23:29;;;;;;;69.53;23.40;;;;;;;;;;5074774;28;20020;-91
2022/01/13 02:25:55;;;;;;;69.57;24.47;;;;;;;;;;5074709;28;20107;-91
2022/01/13 02:28:20;;;;;;;70.80;25.37;;;;;;;;;;5074574;28;20497;-90
2022/01/13 02:30:45;;;;;;;62.77;24.80;;;;;;;;;;5075338;28;20024;-91
2022/01/13 02:33:10;;;;;;;62.07;24.43;;;;;;;;;;5074570;28;20028;-91
2022/01/13 02:35:39;;;;;;;66.13;24.23;;;;;;;;;;5074230;28;20056;-90
2022/01/13 02:38:08;;;;;;;69.93;25.13;;;;;;;;;;5074600;28;20036;-90
2022/01/13 02:40:33;;;;;;;66.63;23.27;;;;;;;;;;5074477;28;20023;-90
2022/01/13 02:42:59;;;;;;;69.83;24.93;;;;;;;;;;5074013;28;20107;-91
2022/01/13 02:45:32;;;;;;;63.90;22.73;;;;;;;;;;5074136;28;20012;-90
2022/01/13 02:48:26;;;;;;;60.73;22.90;;;;;;;;;;5074219;28;20054;-90
2022/01/13 02:50:52;;;;;;;66.33;23.47;;;;;;;;;;5074243;28;20032;-91
2022/01/13 02:53:18;;;;;;;60.20;22.50;;;;;;;;;;5075303;28;20021;-90
2022/01/13 02:55:43;;;;;;;67.97;25.10;;;;;;;;;;5074072;28;20035;-90
2022/01/13 02:58:12;;;;;;;62.90;24.13;;;;;;;;;;5073339;28;20024;-90
2022/01/13 03:00:37;;;;;;;77.27;28.93;;;;;;;;;;5079457;28;20020;-90
2022/01/13 03:03:02;;;;;;;74.67;25.40;;;;;;;;;;5094176;28;20024;-91
2022/01/13 03:05:29;;;;;;;69.47;26.20;;;;;;;;;;5094199;28;20012;-91
2022/01/13 03:07:55;;;;;;;68.73;23.47;;;;;;;;;;5094081;28;20023;-91
2022/01/13 03:10:20;;;;;;;71.10;25.30;;;;;;;;;;5093948;28;20057;-91
2022/01/13 03:12:46;;;;;;;70.53;23.93;;;;;;;;;;5093829;28;20077;-91
2022/01/13 03:15:11;;;;;;;75.10;25.57;;;;;;;;;;5093927;28;20016;-90
2022/01/13 03:17:39;;;;;;;68.83;25.60;;;;;;;;;;5092743;28;20137;-90
2022/01/13 03:20:05;;;;;;;70.17;24.90;;;;;;;;;;5094926;28;20020;-90
2022/01/13 03:22:30;;;;;;;78.33;27.47;;;;;;;;;;5095155;28;20362;-90
2022/01/13 03:24:56;;;;;;;82.83;28.00;;;;;;;;;;5093642;28;20024;-89
2022/01/13 03:27:23;;;;;;;71.10;26.07;;;;;;;;;;5093760;28;20073;-91
2022/01/13 03:29:48;;;;;;;78.93;26.40;;;;;;;;;;5093623;28;20024;-91
2022/01/13 03:32:15;;;;;;;65.20;23.17;;;;;;;;;;5093315;28;20416;-90
2022/01/13 03:34:40;;;;;;;73.53;25.47;;;;;;;;;;5093452;28;20529;-90
2022/01/13 03:37:05;;;;;;;72.10;25.93;;;;;;;;;;5094517;28;20023;-90
2022/01/13 03:39:30;;;;;;;81.23;25.57;;;;;;;;;;5093504;28;20027;-91
2022/01/13 03:41:56;;;;;;;75.60;26.47;;;;;;;;;;5093422;28;20012;-90
2022/01/13 03:44:30;;;;;;;74.20;27.40;;;;;;;;;;5094314;28;20019;-90
2022/01/13 03:46:56;;;;;;;72.63;26.47;;;;;;;;;;5087685;28;20357;-90
2022/01/13 03:49:21;;;;;;;66.07;25.03;;;;;;;;;;5073132;28;20027;-91
2022/01/13 03:51:49;;;;;;;71.17;26.37;;;;;;;;;;5074054;28;20368;-91
2022/01/13 03:54:30;;;;;;;75.27;27.30;;;;;;;;;;5074033;28;20019;-91
2022/01/13 03:57:01;;;;;;;78.57;28.03;;;;;;;;;;5072983;28;20098;-90
2022/01/13 03:59:45;;;;;;;80.13;27.37;;;;;;;;;;5079486;28;20031;-90
2022/01/13 04:02:14;;;;;;;76.50;26.03;;;;;;;;;;5053741;28;20051;-90
2022/01/13 04:04:41;;;;;;;74.53;24.23;;;;;;;;;;5052707;28;20023;-90
2022/01/13 04:07:08;;;;;;;74.97;26.63;;;;;;;;;;5052816;28;20494;-91
2022/01/13 04:09:33;;;;;;;71.20;27.40;;;;;;;;;;5052025;28;20088;-91
2022/01/13 04:12:03;;;;;;;79.03;26.83;;;;;;;;;;5063515;28;20040;-90
2022/01/13 04:14:38;;;;;;;70.47;25.37;;;;;;;;;;5072608;28;20020;-90
2022/01/13 04:17:04;;;;;;;68.27;26.00;;;;;;;;;;5072641;28;20384;-90
2022/01/13 04:19:29;;;;;;;83.70;27.83;;;;;;;;;;5072351;28;20020;-91
2022/01/13 04:21:54;;;;;;;89.33;30.40;;;;;;;;;;5072597;28;20048;-90
2022/01/13 04:24:19;;;;;;;89.70;29.03;;;;;;;;;;5072512;28;20111;-90
2022/01/13 04:26:45;;;;;;;80.70;26.37;;;;;;;;;;5073958;28;20452;-90
2022/01/13 04:31:36;;;;;;;70.50;23.70;;;;;;;;;;5073916;28;20020;-91
2022/01/13 04:34:01;;;;;;;68.13;25.03;;;;;;;;;;5072674;28;20016;-91
2022/01/13 04:36:27;;;;;;;75.50;24.73;;;;;;;;;;5072418;28;20134;-90
2022/01/13 04:38:52;;;;;;;74.27;24.10;;;;;;;;;;5072534;28;20024;-91
2022/01/13 04:41:28;;;;;;;71.07;25.00;;;;;;;;;;5072495;28;20517;-91
2022/01/13 04:43:54;;;;;;;77.27;23.83;;;;;;;;;;5072528;28;20020;-91
2022/01/13 04:46:19;;;;;;;80.63;26.27;;;;;;;;;;5072379;28;20016;-90
2022/01/13 04:48:44;;;;;;;76.83;26.27;;;;;;;;;;5072471;28;20017;-91
2022/01/13 04:51:09;;;;;;;74.63;24.03;;;;;;;;;;5083411;28;20031;-91
2022/01/13 04:53:34;;;;;;;69.63;23.17;;;;;;;;;;5094027;28;20032;-90
2022/01/13 04:56:08;;;;;;;84.17;25.43;;;;;;;;;;5092691;28;20119;-92
2022/01/13 04:58:33;;;;;;;67.30;23.27;;;;;;;;;;5092558;28;20379;-90
2022/01/13 05:00:58;;;;;;;71.27;23.33;;;;;;;;;;5092324;28;20017;-90
2022/01/13 05:03:24;;;;;;;84.23;25.20;;;;;;;;;;5092527;28;20016;-90
2022/01/13 05:05:49;;;;;;;77.00;23.93;;;;;;;;;;5092510;28;20022;-90
2022/01/13 05:08:14;;;;;;;70.43;22.97;;;;;;;;;;5092389;28;20356;-90
2022/01/13 05:10:39;;;;;;;67.87;22.40;;;;;;;;;;5092399;28;20464;-91
2022/01/13 05:13:08;;;;;;;69.37;23.57;;;;;;;;;;5073333;28;20055;-90
2022/01/13 05:15:35;;;;;;;63.53;21.83;;;;;;;;;;5072219;28;20031;-91
2022/01/13 05:18:13;;;;;;;69.37;23.53;;;;;;;;;;5072156;28;20081;-91
2022/01/13 05:21:23;;;;;;;76.50;22.50;;;;;;;;;;5072462;28;20111;-90
2022/01/13 05:23:26;;;;;;;73.50;24.47;;;;;;;;;;5076573;28;20037;-91
2022/01/13 05:25:51;;;;;;;78.17;26.67;;;;;;;;;;5075825;28;20012;-91
2022/01/13 05:28:17;;;;;;;84.00;25.23;;;;;;;;;;5075718;28;20111;-91
2022/01/13 05:30:42;;;;;;;109.53;27.30;;;;;;;;;;5075676;28;20020;-90
2022/01/13 05:33:08;;;;;;;120.37;26.17;;;;;;;;;;5075612;28;20383;-90
2022/01/13 05:35:36;;;;;;;98.97;24.63;;;;;;;;;;5075326;28;20024;-90
2022/01/13 05:38:01;;;;;;;124.73;26.63;;;;;;;;;;5075505;28;20024;-90
2022/01/13 05:40:26;;;;;;;95.33;25.37;;;;;;;;;;5075427;28;20074;-90
2022/01/13 05:42:52;;;;;;;99.70;26.43;;;;;;;;;;5074252;28;20024;-90
2022/01/13 05:45:19;;;;;;;76.10;23.77;;;;;;;;;;5073472;28;20107;-91
2022/01/13 05:47:46;;;;;;;104.23;24.60;;;;;;;;;;5073917;28;20032;-91
2022/01/13 05:50:12;;;;;;;91.80;23.60;;;;;;;;;;5074036;28;20070;-90
2022/01/13 05:52:37;;;;;;;68.57;22.73;;;;;;;;;;5073915;28;20041;-91
2022/01/13 05:55:03;;;;;;;82.70;23.73;;;;;;;;;;5073458;28;20021;-90
2022/01/13 05:57:29;;;;;;;70.43;23.33;;;;;;;;;;5073720;28;20365;-90
2022/01/13 05:59:54;;;;;;;80.00;23.67;;;;;;;;;;5073670;28;20020;-90
2022/01/13 06:02:20;;;;;;;77.13;28.63;;;;;;;;;;5073763;28;20051;-90
2022/01/13 06:04:45;;;;;;;71.33;23.63;;;;;;;;;;5074479;28;20031;-91
2022/01/13 06:07:10;;;;;;;62.13;20.17;;;;;;;;;;5073612;28;20024;-90
2022/01/13 06:09:35;;;;;;;75.50;21.17;;;;;;;;;;5073733;28;20016;-91
2022/01/13 06:12:03;;;;;;;66.43;21.90;;;;;;;;;;5086287;28;20026;-90
2022/01/13 06:14:28;;;;;;;84.50;23.03;;;;;;;;;;5095211;28;20429;-91
2022/01/13 06:16:53;;;;;;;82.20;20.50;;;;;;;;;;5095109;28;20032;-90
2022/01/13 06:19:19;;;;;;;57.17;19.97;;;;;;;;;;5094905;28;20058;-91
2022/01/13 06:21:44;;;;;;;76.30;25.03;;;;;;;;;;5095093;28;20058;-91
2022/01/13 06:24:09;;;;;;;89.17;24.07;;;;;;;;;;5094911;28;20103;-90
2022/01/13 06:26:34;;;;;;;58.23;20.63;;;;;;;;;;5094972;28;20016;-90
2022/01/13 06:29:00;;;;;;;62.03;20.77;;;;;;;;;;5094772;28;20027;-90
2022/01/13 06:31:25;;;;;;;86.37;22.43;;;;;;;;;;5094833;28;20016;-90
2022/01/13 06:33:50;;;;;;;76.27;20.97;;;;;;;;;;5093675;28;20077;-90
2022/01/13 06:36:15;;;;;;;100.67;21.40;;;;;;;;;;5094562;28;20028;-90
2022/01/13 06:38:41;;;;;;;60.50;19.80;;;;;;;;;;5085938;28;20013;-91
2022/01/13 06:41:07;;;;;;;54.33;20.23;;;;;;;;;;5074417;28;20025;-91
2022/01/13 06:43:33;;;;;;;56.50;18.43;;;;;;;;;;5074258;28;20042;-90
2022/01/13 06:45:59;;;;;;;112.93;20.97;;;;;;;;;;5074170;28;20016;-90
2022/01/13 06:48:24;;;;;;;115.80;20.47;;;;;;;;;;5075608;28;20016;-90
2022/01/13 06:50:49;;;;;;;56.77;19.00;;;;;;;;;;5078903;28;20024;-90
2022/01/13 06:53:14;;;;;;;53.30;18.33;;;;;;;;;;5073607;28;20024;-91
2022/01/13 06:55:39;;;;;;;57.33;20.33;;;;;;;;;;5073788;28;20025;-89
2022/01/13 06:58:05;;;;;;;46.47;17.57;;;;;;;;;;5075062;28;20021;-91
2022/01/13 07:00:30;;;;;;;58.37;19.67;;;;;;;;;;5073509;28;20070;-91
2022/01/13 07:02:58;;;;;;;119.80;22.70;;;;;;;;;;5074938;28;20021;-91
2022/01/13 07:05:24;;;;;;;72.70;19.43;;;;;;;;;;5078135;28;20032;-90
2022/01/13 07:07:49;;;;;;;86.60;20.83;;;;;;;;;;5073306;28;20379;-91
2022/01/13 07:10:14;;;;;;;51.77;17.97;;;;;;;;;;5073811;28;20044;-90
2022/01/13 07:12:40;;;;;;;56.90;19.17;;;;;;;;;;5073653;28;20029;-91
2022/01/13 07:15:06;;;;;;;117.23;21.40;;;;;;;;;;5073277;28;20024;-91
2022/01/13 07:17:32;;;;;;;116.30;20.97;;;;;;;;;;5074630;28;20111;-91
2022/01/13 07:19:57;;;;;;;61.87;16.87;;;;;;;;;;5074335;28;20527;-90
2022/01/13 07:22:22;;;;;;;136.03;21.03;;;;;;;;;;5073206;28;20020;-90
2022/01/13 07:24:48;;;;;;;49.40;17.93;;;;;;;;;;5072746;28;20388;-90
2022/01/13 07:27:13;;;;;;;45.00;16.93;;;;;;;;;;5073226;28;20115;-90
2022/01/13 07:29:45;;;;;;;63.50;20.10;;;;;;;;;;5084813;28;20028;-90
2022/01/13 07:32:10;;;;;;;49.80;17.63;;;;;;;;;;5083491;28;20068;-90
2022/01/13 07:34:36;;;;;;;46.73;17.00;;;;;;;;;;5073038;28;20027;-91
2022/01/13 07:37:01;;;;;;;45.77;16.10;;;;;;;;;;5077585;28;20113;-90
2022/01/13 07:39:26;;;;;;;54.50;18.03;;;;;;;;;;5072470;28;20031;-91
2022/01/13 07:41:51;;;;;;;80.67;18.50;;;;;;;;;;5073742;28;20032;-90
2022/01/13 07:44:18;;;;;;;79.90;16.20;;;;;;;;;;5072290;28;20079;-90
2022/01/13 07:46:43;;;;;;;53.27;14.60;;;;;;;;;;5072662;28;20461;-91
2022/01/13 07:49:08;;;;;;;141.93;19.13;;;;;;;;;;5085718;28;20032;-90
2022/01/13 07:51:34;;;;;;;41.23;15.40;;;;;;;;;;5070032;28;20042;-90
2022/01/13 07:53:59;;;;;;;71.43;17.60;;;;;;;;;;5072566;28;20464;-90
2022/01/13 07:56:24;;;;;;;72.40;19.50;;;;;;;;;;5072597;28;20032;-90
2022/01/13 07:58:50;;;;;;;40.40;15.53;;;;;;;;;;5072823;28;20031;-90
2022/01/13 08:01:15;;;;;;;42.87;15.17;;;;;;;;;;5072510;28;20020;-90
2022/01/13 08:03:40;;;;;;;61.80;16.53;;;;;;;;;;5072600;28;20048;-90
2022/01/13 08:06:05;;;;;;;41.57;15.27;;;;;;;;;;5072028;28;20103;-90
2022/01/13 08:08:35;;;;;;;45.20;16.10;;;;;;;;;;5079505;28;20027;-90
2022/01/13 08:11:01;;;;;;;61.70;16.20;;;;;;;;;;5081794;28;20028;-90
2022/01/13 08:13:26;;;;;;;42.77;14.90;;;;;;;;;;5091993;28;20028;-90
2022/01/13 08:15:54;;;;;;;56.53;16.63;;;;;;;;;;5081098;28;20027;-90
2022/01/13 08:21:03;;;;;;;39.13;14.87;;;;;;;;;;5068428;28;20031;-91
2022/01/13 08:23:28;;;;;;;45.73;17.37;;;;;;;;;;5092120;28;20016;-91
2022/01/13 08:25:54;;;;;;;41.10;15.10;;;;;;;;;;5085726;28;20056;-91
2022/01/13 08:28:20;;;;;;;46.30;16.10;;;;;;;;;;5072485;28;20036;-91
2022/01/13 08:30:45;;;;;;;56.17;15.50;;;;;;;;;;5089947;28;20028;-91
2022/01/13 08:33:11;;;;;;;42.67;16.60;;;;;;;;;;5080117;28;20484;-90
2022/01/13 08:35:36;;;;;;;33.97;13.70;;;;;;;;;;5069951;28;20020;-91
2022/01/13 08:38:07;;;;;;;49.87;16.70;;;;;;;;;;5083431;28;20028;-91
2022/01/13 08:40:34;;;;;;;67.37;16.07;;;;;;;;;;5078484;28;20048;-91
2022/01/13 08:43:00;;;;;;;45.23;17.27;;;;;;;;;;5076399;28;20016;-91
2022/01/13 08:45:25;;;;;;;51.40;17.93;;;;;;;;;;5082390;28;20375;-91
2022/01/13 08:47:50;;;;;;;51.07;16.87;;;;;;;;;;5068399;28;20469;-91
2022/01/13 08:50:15;;;;;;;38.67;15.23;;;;;;;;;;5072123;28;20031;-91
2022/01/13 08:52:41;;;;;;;46.80;16.47;;;;;;;;;;5072157;28;20027;-92
2022/01/13 08:55:07;;;;;;;48.43;17.17;;;;;;;;;;5082565;28;20024;-92
2022/01/13 08:57:33;;;;;;;41.70;16.13;;;;;;;;;;5095577;28;20388;-91
2022/01/13 08:59:58;;;;;;;42.73;16.07;;;;;;;;;;5084637;28;20046;-91
2022/01/13 09:02:24;;;;;;;41.57;15.83;;;;;;;;;;5093405;28;20036;-91
2022/01/13 09:04:50;;;;;;;41.53;15.77;;;;;;;;;;5075835;28;20031;-91
2022/01/13 09:07:15;;;;;;;38.53;14.53;;;;;;;;;;5078511;28;20032;-92
2022/01/13 09:09:40;;;;;;;65.67;15.23;;;;;;;;;;5095818;28;20032;-92
2022/01/13 09:12:06;;;;;;;141.03;15.43;;;;;;;;;;5082783;28;20395;-93
2022/01/13 09:14:32;;;;;;;59.93;13.90;;;;;;;;;;5084458;28;20055;-90
2022/01/13 09:16:58;;;;;;;40.67;12.83;;;;;;;;;;5079055;28;20028;-92
2022/01/13 09:19:23;;;;;;;64.73;15.83;;;;;;;;;;5082417;28;20024;-91
2022/01/13 09:21:49;;;;;;;108.10;14.83;;;;;;;;;;5076137;28;20032;-90
2022/01/13 09:24:16;;;;;;;85.70;16.00;;;;;;;;;;5091175;28;20085;-91
2022/01/13 09:26:41;;;;;;;60.60;13.30;;;;;;;;;;5075462;28;20023;-90
2022/01/13 09:29:08;;;;;;;59.03;15.23;;;;;;;;;;5078998;28;20499;-90
2022/01/13 09:31:38;;;;;;;49.67;15.23;;;;;;;;;;5094320;28;20024;-90
2022/01/13 09:34:04;;;;;;;88.63;17.80;;;;;;;;;;5074933;28;20499;-90
2022/01/13 09:36:30;;;;;;;45.33;16.90;;;;;;;;;;5090003;28;20111;-91
2022/01/13 09:38:56;;;;;;;47.83;15.10;;;;;;;;;;5080739;28;20109;-88
2022/01/13 09:41:22;;;;;;;40.03;14.63;;;;;;;;;;5086602;28;20028;-85
2022/01/13 09:43:47;;;;;;;37.27;13.57;;;;;;;;;;5078609;28;20107;-91
2022/01/13 09:46:13;;;;;;;38.67;14.70;;;;;;;;;;5072905;28;20056;-91
2022/01/13 09:48:39;;;;;;;40.50;15.20;;;;;;;;;;5074872;28;20468;-91
2022/01/13 09:51:04;;;;;;;40.77;15.17;;;;;;;;;;5075182;28;20025;-91
2022/01/13 09:53:30;;;;;;;46.20;14.70;;;;;;;;;;5073535;28;20046;-90
2022/01/13 09:55:55;;;;;;;40.50;15.73;;;;;;;;;;5074818;28;20078;-91
2022/01/13 09:58:20;;;;;;;40.80;13.27;;;;;;;;;;5075127;28;20039;-91
2022/01/13 10:00:45;;;;;;;35.40;13.17;;;;;;;;;;5087929;28;20031;-91
2022/01/13 10:03:14;;;;;;;43.87;12.87;;;;;;;;;;5077185;28;20024;-90
2022/01/13 10:05:50;;;;;;;64.43;15.33;;;;;;;;;;5074533;28;20107;-90
2022/01/13 10:08:15;;;;;;;42.13;14.07;;;;;;;;;;5074982;28;20463;-88
2022/01/13 10:10:41;;;;;;;42.80;14.47;;;;;;;;;;5073885;28;20028;-88
2022/01/13 10:13:13;;;;;;;38.77;12.90;;;;;;;;;;5074499;28;20021;-89
2022/01/13 10:18:37;;;;;;;38.53;13.60;;;;;;;;;;5074264;28;20069;-92
2022/01/13 10:21:06;;;;;;;50.20;14.70;;;;;;;;;;5075939;28;20253;-92
2022/01/13 10:23:32;;;;;;;45.80;15.67;;;;;;;;;;5094498;28;20027;-92
2022/01/13 10:26:06;;;;;;;50.97;14.03;;;;;;;;;;5082553;28;20380;-93
2022/01/13 10:28:31;;;;;;;45.60;15.00;;;;;;;;;;5078391;28;20472;-90
2022/01/13 10:30:56;;;;;;;53.90;16.20;;;;;;;;;;5073347;28;20025;-87
2022/01/13 10:33:23;;;;;;;45.57;16.33;;;;;;;;;;5079951;28;20032;-88
2022/01/13 10:35:49;;;;;;;49.97;15.67;;;;;;;;;;5073389;28;20420;-88
2022/01/13 10:38:16;;;;;;;47.80;16.87;;;;;;;;;;5072739;28;20036;-88
2022/01/13 10:40:42;;;;;;;47.73;17.17;;;;;;;;;;5073224;28;20039;-89
2022/01/13 10:43:10;;;;;;;59.30;19.20;;;;;;;;;;5076162;28;20395;-88
2022/01/13 10:45:35;;;;;;;51.30;17.57;;;;;;;;;;5074068;28;20016;-89
2022/01/13 10:48:03;;;;;;;47.07;16.80;;;;;;;;;;5075112;28;20403;-90
2022/01/13 10:50:30;;;;;;;44.73;15.70;;;;;;;;;;5072588;28;20035;-90
2022/01/13 10:53:02;;;;;;;49.77;16.20;;;;;;;;;;5072799;28;20032;-89
2022/01/13 10:55:29;;;;;;;42.67;14.60;;;;;;;;;;5074170;28;20033;-89
2022/01/13 10:57:54;;;;;;;63.30;18.30;;;;;;;;;;5081662;28;20520;-88
2022/01/13 11:00:21;;;;;;;42.90;14.67;;;;;;;;;;5072959;28;20036;-89
2022/01/13 11:02:47;;;;;;;55.73;17.17;;;;;;;;;;5073632;28;20486;-90
2022/01/13 11:05:12;;;;;;;42.73;17.20;;;;;;;;;;5072659;28;20028;-89
2022/01/13 11:07:40;;;;;;;53.07;16.97;;;;;;;;;;5073101;28;20021;-90
2022/01/13 11:10:06;;;;;;;45.63;17.60;;;;;;;;;;5072830;28;20044;-91
2022/01/13 11:12:40;;;;;;;60.33;17.67;;;;;;;;;;5096891;28;20077;-94
2022/01/13 11:15:13;;;;;;;80.80;17.90;;;;;;;;;;5082954;28;20028;-95
2022/01/13 11:17:40;;;;;;;69.90;16.73;;;;;;;;;;5508339;22;20048;-94
2022/01/13 11:20:06;;;;;;;89.47;16.93;;;;;;;;;;5073660;28;20020;-95
2022/01/13 11:22:35;;;;;;;59.63;15.87;;;;;;;;;;5070489;28;20020;-94
2022/01/13 11:25:01;;;;;;;70.20;18.73;;;;;;;;;;5073959;28;20020;-95
2022/01/13 11:27:26;;;;;;;55.60;17.60;;;;;;;;;;5067656;28;20039;-94
2022/01/13 11:29:52;;;;;;;51.70;16.87;;;;;;;;;;5073766;28;20024;-93
2022/01/13 11:32:17;;;;;;;83.10;16.70;;;;;;;;;;5073573;28;20021;-94
2022/01/13 11:34:46;;;;;;;72.47;17.83;;;;;;;;;;5073982;28;20460;-93
2022/01/13 11:37:11;;;;;;;43.07;15.80;;;;;;;;;;5072710;28;20542;-93
2022/01/13 11:39:45;;;;;;;40.83;15.27;;;;;;;;;;5067605;28;20052;-93
2022/01/13 11:42:12;;;;;;;41.63;15.10;;;;;;;;;;5054975;28;20021;-91
2022/01/13 11:44:38;;;;;;;65.67;17.23;;;;;;;;;;5060055;28;20464;-87
2022/01/13 11:47:18;;;;;;;43.73;15.53;;;;;;;;;;5067501;28;20123;-89
2022/01/13 11:49:56;;;;;;;33.33;13.60;;;;;;;;;;5078327;28;20012;-91
2022/01/13 11:52:48;;;;;;;37.40;14.20;;;;;;;;;;5072358;28;20542;-89
2022/01/13 11:55:19;;;;;;;40.00;15.55;;;;;;;;;;5056240;28;20017;-91
2022/01/13 11:57:44;;;;;;;56.63;17.13;;;;;;;;;;5052473;28;20025;-91
2022/01/13 12:00:15;;;;;;;49.23;16.10;;;;;;;;;;5068528;28;20078;-89
2022/01/13 12:02:42;;;;;;;44.57;15.93;;;;;;;;;;5072536;28;20035;-90
2022/01/13 12:05:18;;;;;;;44.57;16.70;;;;;;;;;;5073840;28;20051;-90
2022/01/13 12:07:45;;;;;;;91.67;18.60;;;;;;;;;;5057558;28;20020;-90
2022/01/13 12:10:31;;;;;;;53.27;16.87;;;;;;;;;;5057514;28;20050;-90
2022/01/13 12:12:57;;;;;;;68.90;18.13;;;;;;;;;;5077762;28;20029;-90
2022/01/13 12:15:24;;;;;;;50.90;17.13;;;;;;;;;;5052579;28;20072;-90
2022/01/13 12:18:04;;;;;;;54.33;17.87;;;;;;;;;;5071002;28;20094;-90
2022/01/13 12:23:30;;;;;;;59.47;17.33;;;;;;;;;;5073519;28;20021;-90
2022/01/13 12:25:55;;;;;;;42.87;16.90;;;;;;;;;;5061306;28;20399;-89
2022/01/13 12:28:21;;;;;;;64.43;18.97;;;;;;;;;;5072450;28;20087;-90
2022/01/13 12:30:46;;;;;;;49.07;19.10;;;;;;;;;;5072794;28;20024;-90
2022/01/13 12:33:13;;;;;;;45.17;17.67;;;;;;;;;;5076481;28;20166;-90
2022/01/13 12:35:41;;;;;;;56.80;18.00;;;;;;;;;;5076601;28;20048;-90
2022/01/13 12:38:06;;;;;;;40.57;16.10;;;;;;;;;;5076417;28;20025;-91
2022/01/13 12:40:46;;;;;;;47.50;18.53;;;;;;;;;;5073140;28;20033;-89
2022/01/13 12:43:48;;;;;;;46.60;17.57;;;;;;;;;;5075601;28;20028;-89
2022/01/13 12:46:16;;;;;;;47.95;17.77;;;;;;;;;;5057597;28;20035;-91
2022/01/13 12:48:48;;;;;;;59.07;23.03;;;;;;;;;;5056443;28;20021;-91
2022/01/13 12:51:14;;;;;;;106.10;28.50;;;;;;;;;;5056739;28;20021;-91
2022/01/13 12:53:39;;;;;;;43.03;17.13;;;;;;;;;;5056360;28;20111;-91
2022/01/13 12:56:09;;;;;;;73.37;24.37;;;;;;;;;;5056557;28;20107;-90
2022/01/13 12:58:37;;;;;;;77.37;25.60;;;;;;;;;;5065631;28;20468;-90
2022/01/13 13:01:05;;;;;;;66.87;21.20;;;;;;;;;;5076035;28;20074;-90
2022/01/13 13:03:30;;;;;;;49.47;19.77;;;;;;;;;;5076018;28;20027;-93
2022/01/13 13:05:56;;;;;;;54.97;18.67;;;;;;;;;;5076077;28;20404;-91
2022/01/13 13:08:23;;;;;;;65.57;21.47;;;;;;;;;;5075624;28;20017;-89
2022/01/13 13:10:50;;;;;;;55.97;19.60;;;;;;;;;;5075891;28;20068;-89
2022/01/13 13:13:17;;;;;;;62.37;19.83;;;;;;;;;;5075609;28;20025;-90
2022/01/13 13:15:53;;;;;;;50.53;19.57;;;;;;;;;;5073202;28;20043;-91
2022/01/13 13:18:20;;;;;;;51.00;18.87;;;;;;;;;;5055464;28;20501;-92
2022/01/13 13:20:48;;;;;;;57.23;19.10;;;;;;;;;;5075177;28;20035;-89
2022/01/13 13:23:14;;;;;;;48.43;17.93;;;;;;;;;;5068941;28;20025;-92
2022/01/13 13:25:41;;;;;;;46.63;18.40;;;;;;;;;;5055996;28;20017;-92
2022/01/13 13:28:16;;;;;;;59.17;18.93;;;;;;;;;;5056021;28;20031;-91
2022/01/13 13:30:42;;;;;;;68.07;17.83;;;;;;;;;;5056094;28;20036;-91
2022/01/13 13:33:07;;;;;;;60.27;20.40;;;;;;;;;;5055935;28;20021;-93
2022/01/13 13:35:32;;;;;;;63.07;19.90;;;;;;;;;;5055920;28;20020;-93
2022/01/13 13:37:57;;;;;;;51.53;18.80;;;;;;;;;;5056117;28;20096;-93
2022/01/13 13:40:23;;;;;;;54.50;18.47;;;;;;;;;;5072383;28;20025;-94
2022/01/13 13:42:59;;;;;;;49.83;17.37;;;;;;;;;;5076656;28;20020;-93
2022/01/13 13:45:24;;;;;;;50.70;15.93;;;;;;;;;;5077309;28;20024;-90
2022/01/13 13:47:54;;;;;;;52.90;16.87;;;;;;;;;;5076322;28;20024;-92
2022/01/13 13:50:19;;;;;;;55.73;16.87;;;;;;;;;;5078220;28;20044;-92
2022/01/13 13:52:46;;;;;;;52.20;16.90;;;;;;;;;;5075810;28;20021;-92
2022/01/13 13:55:11;;;;;;;50.77;17.07;;;;;;;;;;5074729;28;20051;-89
2022/01/13 13:57:38;;;;;;;50.00;17.23;;;;;;;;;;5074632;28;20502;-89
2022/01/13 14:00:08;;;;;;;51.93;17.07;;;;;;;;;;5075814;28;20035;-90
2022/01/13 14:02:38;;;;;;;57.60;17.37;;;;;;;;;;5074773;28;20414;-91
2022/01/13 14:05:04;;;;;;;43.13;14.67;;;;;;;;;;5069192;28;20372;-89
2022/01/13 14:07:43;;;;;;;54.17;15.87;;;;;;;;;;5059828;28;20013;-92
2022/01/13 14:10:29;;;;;;;44.00;15.57;;;;;;;;;;5071574;28;20047;-90
2022/01/13 14:13:08;;;;;;;44.43;15.57;;;;;;;;;;5074555;28;20518;-91
2022/01/13 14:15:51;;;;;;;36.60;12.70;;;;;;;;;;5074420;28;20494;-91
2022/01/13 14:18:20;;;;;;;40.93;14.60;;;;;;;;;;5062863;28;20073;-90
2022/01/13 14:21:00;;;;;;;39.93;14.60;;;;;;;;;;5075040;28;20531;-93
2022/01/13 14:23:26;;;;;;;47.10;16.13;;;;;;;;;;5078310;28;20035;-92
2022/01/13 14:25:53;;;;;;;40.93;14.33;;;;;;;;;;5062292;28;20017;-91
2022/01/13 14:28:25;;;;;;;46.90;15.60;;;;;;;;;;5071125;28;20062;-92
2022/01/13 14:30:51;;;;;;;44.15;15.48;;;;;;;;;;5074042;28;20038;-90
2022/01/13 14:33:25;;;;;;;45.10;15.60;;;;;;;;;;5084090;28;20111;-89
2022/01/13 14:36:01;;;;;;;40.43;14.77;;;;;;;;;;5086546;28;20528;-90
2022/01/13 14:38:38;;;;;;;44.87;14.27;;;;;;;;;;5094713;28;20538;-87
2022/01/13 14:41:04;;;;;;;46.77;15.10;;;;;;;;;;5095372;28;20040;-90